sensor_id;sensor_type;location;lat;lon;timestamp;P1;durP1;ratioP1;P2;durP2;ratioP2
7338;SDS011;33747;49.524;8.390;2023-03-21T00:01:31;7.95;;;3.92;;
7338;SDS011;33747;49.524;8.390;2023-03-21T00:03:56;8.18;;;4.00;;
7338;SDS011;33747;49.524;8.390;2023-03-21T00:06:21;8.93;;;3.90;;
7338;SDS011;33747;49.524;8.390;2023-03-21T00:08:47;8.63;;;3.40;;
7338;SDS011;33747;49.524;8.390;2023-03-21T00:11:12;6.10;;;3.70;;
7338;SDS011;33747;49.524;8.390;2023-03-21T00:13:38;8.35;;;3.45;;
7338;SDS011;33747;49.524;8.390;2023-03-21T00:16:09;7.53;;;3.42;;
7338;SDS011;33747;49.524;8.390;2023-03-21T00:18:39;7.60;;;3.78;;
7338;SDS011;33747;49.524;8.390;2023-03-21T00:21:10;7.25;;;3.70;;
7338;SDS011;33747;49.524;8.390;2023-03-21T00:23:40;7.13;;;3.13;;
7338;SDS011;33747;49.524;8.390;2023-03-21T00:26:07;5.03;;;3.47;;
7338;SDS011;33747;49.524;8.390;2023-03-21T00:28:34;4.90;;;3.00;;
7338;SDS011;33747;49.524;8.390;2023-03-21T00:31:02;7.72;;;3.25;;
7338;SDS011;33747;49.524;8.390;2023-03-21T00:33:28;7.82;;;3.70;;
7338;SDS011;33747;49.524;8.390;2023-03-21T00:35:53;5.45;;;3.05;;
7338;SDS011;33747;49.524;8.390;2023-03-21T00:38:20;6.47;;;3.50;;
7338;SDS011;33747;49.524;8.390;2023-03-21T00:40:46;5.07;;;3.22;;
7338;SDS011;33747;49.524;8.390;2023-03-21T00:43:11;8.65;;;3.60;;
7338;SDS011;33747;49.524;8.390;2023-03-21T00:45:41;9.55;;;3.05;;
7338;SDS011;33747;49.524;8.390;2023-03-21T00:48:07;7.97;;;3.60;;
7338;SDS011;33747;49.524;8.390;2023-03-21T00:50:32;7.90;;;3.28;;
7338;SDS011;33747;49.524;8.390;2023-03-21T00:52:58;6.95;;;3.03;;
7338;SDS011;33747;49.524;8.390;2023-03-21T00:55:24;6.70;;;2.45;;
7338;SDS011;33747;49.524;8.390;2023-03-21T00:57:49;10.73;;;3.35;;
7338;SDS011;33747;49.524;8.390;2023-03-21T01:00:15;9.15;;;3.60;;
7338;SDS011;33747;49.524;8.390;2023-03-21T01:02:42;12.13;;;3.47;;
7338;SDS011;33747;49.524;8.390;2023-03-21T01:05:20;6.50;;;3.17;;
7338;SDS011;33747;49.524;8.390;2023-03-21T01:08:10;5.22;;;3.30;;
7338;SDS011;33747;49.524;8.390;2023-03-21T01:10:40;4.28;;;2.70;;
7338;SDS011;33747;49.524;8.390;2023-03-21T01:13:07;4.53;;;2.75;;
7338;SDS011;33747;49.524;8.390;2023-03-21T01:15:33;4.72;;;2.75;;
7338;SDS011;33747;49.524;8.390;2023-03-21T01:17:59;5.88;;;2.83;;
7338;SDS011;33747;49.524;8.390;2023-03-21T01:20:24;4.25;;;2.83;;
7338;SDS011;33747;49.524;8.390;2023-03-21T01:22:50;4.60;;;2.80;;
7338;SDS011;33747;49.524;8.390;2023-03-21T01:25:15;5.57;;;2.83;;
7338;SDS011;33747;49.524;8.390;2023-03-21T01:27:40;9.13;;;2.85;;
7338;SDS011;33747;49.524;8.390;2023-03-21T01:30:06;6.95;;;2.78;;
7338;SDS011;33747;49.524;8.390;2023-03-21T01:32:32;6.97;;;3.20;;
7338;SDS011;33747;49.524;8.390;2023-03-21T01:34:57;4.72;;;2.20;;
7338;SDS011;33747;49.524;8.390;2023-03-21T01:37:23;9.20;;;2.90;;
7338;SDS011;33747;49.524;8.390;2023-03-21T01:39:50;8.75;;;2.70;;
7338;SDS011;33747;49.524;8.390;2023-03-21T01:42:15;4.60;;;2.70;;
7338;SDS011;33747;49.524;8.390;2023-03-21T01:47:54;4.13;;;2.90;;
7338;SDS011;33747;49.524;8.390;2023-03-21T01:50:20;5.40;;;3.15;;
7338;SDS011;33747;49.524;8.390;2023-03-21T01:52:46;6.75;;;3.03;;
7338;SDS011;33747;49.524;8.390;2023-03-21T01:55:14;7.40;;;3.33;;
7338;SDS011;33747;49.524;8.390;2023-03-21T01:57:46;4.13;;;2.90;;
7338;SDS011;33747;49.524;8.390;2023-03-21T02:00:17;10.07;;;3.63;;
7338;SDS011;33747;49.524;8.390;2023-03-21T02:02:44;3.72;;;2.75;;
7338;SDS011;33747;49.524;8.390;2023-03-21T02:08:21;7.13;;;3.28;;
7338;SDS011;33747;49.524;8.390;2023-03-21T02:10:47;5.60;;;2.90;;
7338;SDS011;33747;49.524;8.390;2023-03-21T02:13:13;6.85;;;3.28;;
7338;SDS011;33747;49.524;8.390;2023-03-21T02:15:40;8.07;;;3.13;;
7338;SDS011;33747;49.524;8.390;2023-03-21T02:18:26;3.90;;;2.63;;
7338;SDS011;33747;49.524;8.390;2023-03-21T02:21:10;4.47;;;2.97;;
7338;SDS011;33747;49.524;8.390;2023-03-21T02:46:37;6.05;;;3.35;;
7338;SDS011;33747;49.524;8.390;2023-03-21T02:49:16;9.77;;;3.22;;
7338;SDS011;33747;49.524;8.390;2023-03-21T02:51:43;6.82;;;3.22;;
7338;SDS011;33747;49.524;8.390;2023-03-21T02:54:11;5.82;;;3.40;;
7338;SDS011;33747;49.524;8.390;2023-03-21T02:56:39;6.88;;;3.30;;
7338;SDS011;33747;49.524;8.390;2023-03-21T02:59:05;6.82;;;3.20;;
7338;SDS011;33747;49.524;8.390;2023-03-21T03:01:32;3.85;;;3.10;;
7338;SDS011;33747;49.524;8.390;2023-03-21T03:03:58;8.43;;;3.40;;
7338;SDS011;33747;49.524;8.390;2023-03-21T03:06:25;7.68;;;3.13;;
7338;SDS011;33747;49.524;8.390;2023-03-21T03:11:34;6.13;;;3.30;;
7338;SDS011;33747;49.524;8.390;2023-03-21T03:22:53;6.50;;;3.20;;
7338;SDS011;33747;49.524;8.390;2023-03-21T03:26:03;4.40;;;2.72;;
7338;SDS011;33747;49.524;8.390;2023-03-21T03:28:35;7.78;;;3.47;;
7338;SDS011;33747;49.524;8.390;2023-03-21T03:31:02;6.07;;;3.30;;
7338;SDS011;33747;49.524;8.390;2023-03-21T03:33:29;9.13;;;3.22;;
7338;SDS011;33747;49.524;8.390;2023-03-21T03:35:55;5.65;;;2.70;;
7338;SDS011;33747;49.524;8.390;2023-03-21T03:38:21;7.10;;;3.17;;
7338;SDS011;33747;49.524;8.390;2023-03-21T03:41:01;8.48;;;3.38;;
7338;SDS011;33747;49.524;8.390;2023-03-21T03:43:54;6.03;;;3.28;;
7338;SDS011;33747;49.524;8.390;2023-03-21T03:46:28;10.70;;;3.00;;
7338;SDS011;33747;49.524;8.390;2023-03-21T03:49:12;4.85;;;2.88;;
7338;SDS011;33747;49.524;8.390;2023-03-21T03:51:46;6.80;;;3.25;;
7338;SDS011;33747;49.524;8.390;2023-03-21T03:54:16;7.82;;;2.90;;
7338;SDS011;33747;49.524;8.390;2023-03-21T03:56:44;4.38;;;3.25;;
7338;SDS011;33747;49.524;8.390;2023-03-21T03:59:10;7.40;;;3.00;;
7338;SDS011;33747;49.524;8.390;2023-03-21T04:01:36;3.05;;;2.72;;
7338;SDS011;33747;49.524;8.390;2023-03-21T04:04:01;8.52;;;3.00;;
7338;SDS011;33747;49.524;8.390;2023-03-21T04:06:26;5.93;;;3.25;;
7338;SDS011;33747;49.524;8.390;2023-03-21T04:08:53;7.05;;;3.53;;
7338;SDS011;33747;49.524;8.390;2023-03-21T04:11:20;5.80;;;3.03;;
7338;SDS011;33747;49.524;8.390;2023-03-21T04:13:45;4.95;;;2.88;;
7338;SDS011;33747;49.524;8.390;2023-03-21T04:16:11;7.05;;;3.03;;
7338;SDS011;33747;49.524;8.390;2023-03-21T04:18:36;10.60;;;3.30;;
7338;SDS011;33747;49.524;8.390;2023-03-21T04:21:05;6.50;;;3.30;;
7338;SDS011;33747;49.524;8.390;2023-03-21T04:23:37;7.57;;;2.60;;
7338;SDS011;33747;49.524;8.390;2023-03-21T04:26:03;8.57;;;3.33;;
7338;SDS011;33747;49.524;8.390;2023-03-21T04:28:29;9.93;;;3.50;;
7338;SDS011;33747;49.524;8.390;2023-03-21T04:30:54;5.90;;;3.00;;
7338;SDS011;33747;49.524;8.390;2023-03-21T04:33:21;5.53;;;2.67;;
7338;SDS011;33747;49.524;8.390;2023-03-21T04:35:49;4.18;;;2.88;;
7338;SDS011;33747;49.524;8.390;2023-03-21T04:38:23;8.05;;;2.80;;
7338;SDS011;33747;49.524;8.390;2023-03-21T04:40:50;6.82;;;2.63;;
7338;SDS011;33747;49.524;8.390;2023-03-21T04:43:15;5.00;;;2.92;;
7338;SDS011;33747;49.524;8.390;2023-03-21T04:45:41;6.32;;;3.40;;
7338;SDS011;33747;49.524;8.390;2023-03-21T04:48:06;12.55;;;2.63;;
7338;SDS011;33747;49.524;8.390;2023-03-21T04:50:32;5.50;;;2.80;;
7338;SDS011;33747;49.524;8.390;2023-03-21T04:52:57;8.25;;;3.33;;
7338;SDS011;33747;49.524;8.390;2023-03-21T04:55:22;10.15;;;2.83;;
7338;SDS011;33747;49.524;8.390;2023-03-21T04:57:52;4.75;;;2.30;;
7338;SDS011;33747;49.524;8.390;2023-03-21T05:00:17;6.47;;;2.40;;
7338;SDS011;33747;49.524;8.390;2023-03-21T05:02:43;16.52;;;3.33;;
7338;SDS011;33747;49.524;8.390;2023-03-21T05:05:08;7.38;;;3.17;;
7338;SDS011;33747;49.524;8.390;2023-03-21T05:07:39;6.05;;;3.05;;
7338;SDS011;33747;49.524;8.390;2023-03-21T05:10:05;6.60;;;2.70;;
7338;SDS011;33747;49.524;8.390;2023-03-21T05:12:32;6.25;;;2.92;;
7338;SDS011;33747;49.524;8.390;2023-03-21T05:14:58;8.60;;;3.10;;
7338;SDS011;33747;49.524;8.390;2023-03-21T05:17:23;12.43;;;3.20;;
7338;SDS011;33747;49.524;8.390;2023-03-21T05:19:49;6.15;;;3.17;;
7338;SDS011;33747;49.524;8.390;2023-03-21T05:22:17;8.93;;;3.10;;
7338;SDS011;33747;49.524;8.390;2023-03-21T05:24:43;7.97;;;3.30;;
7338;SDS011;33747;49.524;8.390;2023-03-21T05:27:13;3.92;;;2.70;;
7338;SDS011;33747;49.524;8.390;2023-03-21T05:29:58;11.90;;;3.50;;
7338;SDS011;33747;49.524;8.390;2023-03-21T05:32:34;6.53;;;3.08;;
7338;SDS011;33747;49.524;8.390;2023-03-21T05:35:00;5.53;;;3.20;;
7338;SDS011;33747;49.524;8.390;2023-03-21T05:37:26;5.30;;;2.85;;
7338;SDS011;33747;49.524;8.390;2023-03-21T05:39:52;4.70;;;2.80;;
7338;SDS011;33747;49.524;8.390;2023-03-21T05:42:17;7.13;;;2.80;;
7338;SDS011;33747;49.524;8.390;2023-03-21T05:44:43;6.68;;;2.85;;
7338;SDS011;33747;49.524;8.390;2023-03-21T05:47:10;6.97;;;3.38;;
7338;SDS011;33747;49.524;8.390;2023-03-21T05:49:39;6.78;;;3.22;;
7338;SDS011;33747;49.524;8.390;2023-03-21T05:52:05;4.93;;;2.70;;
7338;SDS011;33747;49.524;8.390;2023-03-21T05:54:30;7.88;;;3.05;;
7338;SDS011;33747;49.524;8.390;2023-03-21T05:56:55;7.47;;;2.88;;
7338;SDS011;33747;49.524;8.390;2023-03-21T05:59:21;11.02;;;3.03;;
7338;SDS011;33747;49.524;8.390;2023-03-21T06:01:46;7.70;;;2.90;;
7338;SDS011;33747;49.524;8.390;2023-03-21T06:04:11;7.43;;;3.00;;
7338;SDS011;33747;49.524;8.390;2023-03-21T06:06:37;5.80;;;3.53;;
7338;SDS011;33747;49.524;8.390;2023-03-21T06:09:02;7.18;;;3.17;;
7338;SDS011;33747;49.524;8.390;2023-03-21T06:11:28;3.28;;;2.80;;
7338;SDS011;33747;49.524;8.390;2023-03-21T06:13:55;7.18;;;2.92;;
7338;SDS011;33747;49.524;8.390;2023-03-21T06:16:21;6.57;;;3.20;;
7338;SDS011;33747;49.524;8.390;2023-03-21T06:18:46;6.15;;;3.13;;
7338;SDS011;33747;49.524;8.390;2023-03-21T06:21:11;6.70;;;3.10;;
7338;SDS011;33747;49.524;8.390;2023-03-21T06:23:37;8.95;;;3.63;;
7338;SDS011;33747;49.524;8.390;2023-03-21T06:26:03;10.18;;;3.38;;
7338;SDS011;33747;49.524;8.390;2023-03-21T06:28:29;8.88;;;3.13;;
7338;SDS011;33747;49.524;8.390;2023-03-21T06:30:54;9.77;;;2.92;;
7338;SDS011;33747;49.524;8.390;2023-03-21T06:33:19;4.82;;;3.17;;
7338;SDS011;33747;49.524;8.390;2023-03-21T06:35:49;6.35;;;3.25;;
7338;SDS011;33747;49.524;8.390;2023-03-21T06:38:18;7.80;;;3.55;;
7338;SDS011;33747;49.524;8.390;2023-03-21T06:40:46;11.23;;;3.50;;
7338;SDS011;33747;49.524;8.390;2023-03-21T06:43:12;7.05;;;3.35;;
7338;SDS011;33747;49.524;8.390;2023-03-21T06:45:38;7.40;;;3.15;;
7338;SDS011;33747;49.524;8.390;2023-03-21T06:48:03;8.38;;;2.63;;
7338;SDS011;33747;49.524;8.390;2023-03-21T06:50:29;8.63;;;3.08;;
7338;SDS011;33747;49.524;8.390;2023-03-21T06:52:54;7.53;;;3.28;;
7338;SDS011;33747;49.524;8.390;2023-03-21T06:55:21;8.48;;;2.50;;
7338;SDS011;33747;49.524;8.390;2023-03-21T06:57:50;5.43;;;3.25;;
7338;SDS011;33747;49.524;8.390;2023-03-21T07:00:16;6.03;;;3.08;;
7338;SDS011;33747;49.524;8.390;2023-03-21T07:02:42;9.93;;;2.63;;
7338;SDS011;33747;49.524;8.390;2023-03-21T07:05:07;7.93;;;2.70;;
7338;SDS011;33747;49.524;8.390;2023-03-21T07:07:33;6.40;;;2.60;;
7338;SDS011;33747;49.524;8.390;2023-03-21T07:09:58;6.30;;;2.55;;
7338;SDS011;33747;49.524;8.390;2023-03-21T07:12:24;11.60;;;3.08;;
7338;SDS011;33747;49.524;8.390;2023-03-21T07:14:49;4.88;;;2.65;;
7338;SDS011;33747;49.524;8.390;2023-03-21T07:17:15;7.15;;;2.40;;
7338;SDS011;33747;49.524;8.390;2023-03-21T07:19:40;5.95;;;2.30;;
7338;SDS011;33747;49.524;8.390;2023-03-21T07:22:05;8.35;;;3.40;;
7338;SDS011;33747;49.524;8.390;2023-03-21T07:24:31;7.90;;;2.65;;
7338;SDS011;33747;49.524;8.390;2023-03-21T07:26:56;5.75;;;2.33;;
7338;SDS011;33747;49.524;8.390;2023-03-21T07:29:22;8.65;;;2.40;;
7338;SDS011;33747;49.524;8.390;2023-03-21T07:31:47;9.00;;;2.38;;
7338;SDS011;33747;49.524;8.390;2023-03-21T07:34:13;6.90;;;3.00;;
7338;SDS011;33747;49.524;8.390;2023-03-21T07:36:40;7.00;;;2.58;;
7338;SDS011;33747;49.524;8.390;2023-03-21T07:39:06;10.23;;;2.90;;
7338;SDS011;33747;49.524;8.390;2023-03-21T07:41:31;6.75;;;2.50;;
7338;SDS011;33747;49.524;8.390;2023-03-21T07:43:57;8.95;;;2.53;;
7338;SDS011;33747;49.524;8.390;2023-03-21T07:46:22;6.38;;;2.70;;
7338;SDS011;33747;49.524;8.390;2023-03-21T07:48:47;4.80;;;2.38;;
7338;SDS011;33747;49.524;8.390;2023-03-21T07:51:13;2.80;;;2.10;;
7338;SDS011;33747;49.524;8.390;2023-03-21T07:53:38;5.85;;;2.60;;
7338;SDS011;33747;49.524;8.390;2023-03-21T07:56:05;8.93;;;2.65;;
7338;SDS011;33747;49.524;8.390;2023-03-21T07:58:31;6.05;;;2.50;;
7338;SDS011;33747;49.524;8.390;2023-03-21T08:00:58;6.13;;;2.92;;
7338;SDS011;33747;49.524;8.390;2023-03-21T08:03:24;10.10;;;3.30;;
7338;SDS011;33747;49.524;8.390;2023-03-21T08:05:53;6.40;;;2.70;;
7338;SDS011;33747;49.524;8.390;2023-03-21T08:08:18;6.95;;;2.47;;
7338;SDS011;33747;49.524;8.390;2023-03-21T08:10:43;6.25;;;3.08;;
7338;SDS011;33747;49.524;8.390;2023-03-21T08:13:09;5.53;;;2.40;;
7338;SDS011;33747;49.524;8.390;2023-03-21T08:15:34;11.05;;;3.55;;
7338;SDS011;33747;49.524;8.390;2023-03-21T08:18:01;3.85;;;2.33;;
7338;SDS011;33747;49.524;8.390;2023-03-21T08:20:26;10.38;;;3.72;;
7338;SDS011;33747;49.524;8.390;2023-03-21T08:22:52;7.63;;;2.47;;
7338;SDS011;33747;49.524;8.390;2023-03-21T08:25:19;11.48;;;5.35;;
7338;SDS011;33747;49.524;8.390;2023-03-21T08:27:46;15.40;;;3.13;;
7338;SDS011;33747;49.524;8.390;2023-03-21T08:30:12;9.45;;;3.50;;
7338;SDS011;33747;49.524;8.390;2023-03-21T08:32:40;4.45;;;2.40;;
7338;SDS011;33747;49.524;8.390;2023-03-21T08:35:06;7.35;;;2.55;;
7338;SDS011;33747;49.524;8.390;2023-03-21T08:37:38;6.97;;;2.70;;
7338;SDS011;33747;49.524;8.390;2023-03-21T08:40:05;8.20;;;2.45;;
7338;SDS011;33747;49.524;8.390;2023-03-21T08:42:33;6.82;;;2.08;;
7338;SDS011;33747;49.524;8.390;2023-03-21T08:44:58;4.60;;;2.30;;
7338;SDS011;33747;49.524;8.390;2023-03-21T08:47:24;6.50;;;2.00;;
7338;SDS011;33747;49.524;8.390;2023-03-21T08:49:49;5.18;;;2.22;;
7338;SDS011;33747;49.524;8.390;2023-03-21T08:52:14;4.47;;;2.17;;
7338;SDS011;33747;49.524;8.390;2023-03-21T08:54:40;7.40;;;3.03;;
7338;SDS011;33747;49.524;8.390;2023-03-21T08:57:06;6.72;;;2.90;;
7338;SDS011;33747;49.524;8.390;2023-03-21T08:59:32;12.13;;;2.80;;
7338;SDS011;33747;49.524;8.390;2023-03-21T09:01:58;6.13;;;2.10;;
7338;SDS011;33747;49.524;8.390;2023-03-21T09:04:23;10.80;;;2.50;;
7338;SDS011;33747;49.524;8.390;2023-03-21T09:06:50;8.93;;;2.53;;
7338;SDS011;33747;49.524;8.390;2023-03-21T09:09:16;8.70;;;2.92;;
7338;SDS011;33747;49.524;8.390;2023-03-21T09:11:42;6.47;;;2.83;;
7338;SDS011;33747;49.524;8.390;2023-03-21T09:14:07;3.92;;;2.28;;
7338;SDS011;33747;49.524;8.390;2023-03-21T09:16:33;7.05;;;3.10;;
7338;SDS011;33747;49.524;8.390;2023-03-21T09:18:58;6.60;;;3.83;;
7338;SDS011;33747;49.524;8.390;2023-03-21T09:21:24;7.18;;;3.28;;
7338;SDS011;33747;49.524;8.390;2023-03-21T09:23:51;7.82;;;2.15;;
7338;SDS011;33747;49.524;8.390;2023-03-21T09:26:19;6.57;;;2.20;;
7338;SDS011;33747;49.524;8.390;2023-03-21T09:28:44;7.68;;;2.75;;
7338;SDS011;33747;49.524;8.390;2023-03-21T09:31:11;19.15;;;2.75;;
7338;SDS011;33747;49.524;8.390;2023-03-21T09:33:40;5.85;;;2.20;;
7338;SDS011;33747;49.524;8.390;2023-03-21T09:36:06;6.00;;;2.10;;
7338;SDS011;33747;49.524;8.390;2023-03-21T09:38:36;8.90;;;2.28;;
7338;SDS011;33747;49.524;8.390;2023-03-21T09:49:28;4.75;;;2.05;;
7338;SDS011;33747;49.524;8.390;2023-03-21T09:52:00;6.63;;;1.73;;
7338;SDS011;33747;49.524;8.390;2023-03-21T09:54:34;7.47;;;2.08;;
7338;SDS011;33747;49.524;8.390;2023-03-21T09:57:45;3.95;;;2.00;;
7338;SDS011;33747;49.524;8.390;2023-03-21T10:00:05;2.22;;;2.03;;
7338;SDS011;33747;49.524;8.390;2023-03-21T10:07:47;5.00;;;2.13;;
7338;SDS011;33747;49.524;8.390;2023-03-21T10:10:20;5.13;;;2.33;;
7338;SDS011;33747;49.524;8.390;2023-03-21T10:12:48;2.97;;;1.98;;
7338;SDS011;33747;49.524;8.390;2023-03-21T10:15:15;3.70;;;2.00;;
7338;SDS011;33747;49.524;8.390;2023-03-21T10:17:43;5.03;;;2.22;;
7338;SDS011;33747;49.524;8.390;2023-03-21T10:20:17;4.65;;;2.10;;
7338;SDS011;33747;49.524;8.390;2023-03-21T10:22:49;5.20;;;2.17;;
7338;SDS011;33747;49.524;8.390;2023-03-21T10:25:18;5.55;;;1.90;;
7338;SDS011;33747;49.524;8.390;2023-03-21T10:27:45;4.43;;;2.10;;
7338;SDS011;33747;49.524;8.390;2023-03-21T10:30:17;4.43;;;2.20;;
7338;SDS011;33747;49.524;8.390;2023-03-21T10:32:47;9.25;;;2.40;;
7338;SDS011;33747;49.524;8.390;2023-03-21T10:35:13;7.13;;;2.33;;
7338;SDS011;33747;49.524;8.390;2023-03-21T10:37:38;6.53;;;2.47;;
7338;SDS011;33747;49.524;8.390;2023-03-21T10:40:04;5.72;;;1.70;;
7338;SDS011;33747;49.524;8.390;2023-03-21T10:42:31;4.00;;;2.17;;
7338;SDS011;33747;49.524;8.390;2023-03-21T10:44:59;5.53;;;2.13;;
7338;SDS011;33747;49.524;8.390;2023-03-21T10:47:26;4.93;;;2.13;;
7338;SDS011;33747;49.524;8.390;2023-03-21T10:49:51;4.47;;;2.30;;
7338;SDS011;33747;49.524;8.390;2023-03-21T10:52:18;3.65;;;2.17;;
7338;SDS011;33747;49.524;8.390;2023-03-21T10:54:45;5.13;;;2.47;;
7338;SDS011;33747;49.524;8.390;2023-03-21T10:57:17;7.13;;;2.92;;
7338;SDS011;33747;49.524;8.390;2023-03-21T10:59:47;5.05;;;2.58;;
7338;SDS011;33747;49.524;8.390;2023-03-21T11:02:24;3.78;;;2.10;;
7338;SDS011;33747;49.524;8.390;2023-03-21T11:04:53;2.65;;;2.22;;
7338;SDS011;33747;49.524;8.390;2023-03-21T11:07:19;5.25;;;2.83;;
7338;SDS011;33747;49.524;8.390;2023-03-21T11:09:49;4.18;;;2.53;;
7338;SDS011;33747;49.524;8.390;2023-03-21T11:12:27;5.63;;;3.25;;
7338;SDS011;33747;49.524;8.390;2023-03-21T11:17:56;3.90;;;2.50;;
7338;SDS011;33747;49.524;8.390;2023-03-21T11:20:23;6.93;;;2.50;;
7338;SDS011;33747;49.524;8.390;2023-03-21T11:22:49;4.57;;;2.92;;
7338;SDS011;33747;49.524;8.390;2023-03-21T11:25:19;4.57;;;2.85;;
7338;SDS011;33747;49.524;8.390;2023-03-21T11:27:52;6.35;;;2.55;;
7338;SDS011;33747;49.524;8.390;2023-03-21T11:30:25;4.63;;;2.90;;
7338;SDS011;33747;49.524;8.390;2023-03-21T11:32:55;6.40;;;2.58;;
7338;SDS011;33747;49.524;8.390;2023-03-21T11:35:22;4.70;;;2.50;;
7338;SDS011;33747;49.524;8.390;2023-03-21T11:37:50;6.38;;;3.83;;
7338;SDS011;33747;49.524;8.390;2023-03-21T11:40:24;5.30;;;2.50;;
7338;SDS011;33747;49.524;8.390;2023-03-21T11:43:01;4.40;;;2.42;;
7338;SDS011;33747;49.524;8.390;2023-03-21T11:45:29;4.03;;;2.47;;
7338;SDS011;33747;49.524;8.390;2023-03-21T11:47:57;3.92;;;2.50;;
7338;SDS011;33747;49.524;8.390;2023-03-21T11:50:30;5.97;;;2.42;;
7338;SDS011;33747;49.524;8.390;2023-03-21T11:53:03;5.82;;;2.53;;
7338;SDS011;33747;49.524;8.390;2023-03-21T11:56:09;4.15;;;2.03;;
7338;SDS011;33747;49.524;8.390;2023-03-21T11:58:45;5.00;;;2.42;;
7338;SDS011;33747;49.524;8.390;2023-03-21T12:01:42;3.58;;;2.17;;
7338;SDS011;33747;49.524;8.390;2023-03-21T12:04:34;4.22;;;2.67;;
7338;SDS011;33747;49.524;8.390;2023-03-21T12:09:56;5.63;;;2.75;;
7338;SDS011;33747;49.524;8.390;2023-03-21T12:12:33;5.20;;;2.40;;
7338;SDS011;33747;49.524;8.390;2023-03-21T12:15:16;5.45;;;3.05;;
7338;SDS011;33747;49.524;8.390;2023-03-21T12:18:05;3.38;;;2.63;;
7338;SDS011;33747;49.524;8.390;2023-03-21T12:37:13;5.10;;;2.13;;
7338;SDS011;33747;49.524;8.390;2023-03-21T12:39:45;6.55;;;2.22;;
7338;SDS011;33747;49.524;8.390;2023-03-21T12:44:50;2.95;;;2.00;;
7338;SDS011;33747;49.524;8.390;2023-03-21T12:47:38;7.85;;;2.33;;
7338;SDS011;33747;49.524;8.390;2023-03-21T12:50:14;4.28;;;1.75;;
7338;SDS011;33747;49.524;8.390;2023-03-21T12:52:45;2.65;;;2.00;;
7338;SDS011;33747;49.524;8.390;2023-03-21T12:55:13;2.70;;;2.10;;
7338;SDS011;33747;49.524;8.390;2023-03-21T12:57:51;4.05;;;2.17;;
7338;SDS011;33747;49.524;8.390;2023-03-21T13:05:26;6.13;;;2.17;;
7338;SDS011;33747;49.524;8.390;2023-03-21T13:07:53;5.28;;;1.85;;
7338;SDS011;33747;49.524;8.390;2023-03-21T13:10:22;2.58;;;2.05;;
7338;SDS011;33747;49.524;8.390;2023-03-21T13:15:44;2.92;;;1.80;;
7338;SDS011;33747;49.524;8.390;2023-03-21T13:21:08;2.60;;;1.58;;
7338;SDS011;33747;49.524;8.390;2023-03-21T13:23:37;4.05;;;1.40;;
7338;SDS011;33747;49.524;8.390;2023-03-21T13:26:06;3.40;;;1.50;;
7338;SDS011;33747;49.524;8.390;2023-03-21T13:28:33;4.65;;;1.45;;
7338;SDS011;33747;49.524;8.390;2023-03-21T13:31:19;2.55;;;1.45;;
7338;SDS011;33747;49.524;8.390;2023-03-21T13:33:47;2.95;;;1.63;;
7338;SDS011;33747;49.524;8.390;2023-03-21T13:36:14;3.50;;;1.48;;
7338;SDS011;33747;49.524;8.390;2023-03-21T13:38:40;2.00;;;1.48;;
7338;SDS011;33747;49.524;8.390;2023-03-21T13:41:08;4.35;;;2.28;;
7338;SDS011;33747;49.524;8.390;2023-03-21T13:43:54;6.20;;;1.90;;
7338;SDS011;33747;49.524;8.390;2023-03-21T13:48:54;3.60;;;2.08;;
7338;SDS011;33747;49.524;8.390;2023-03-21T13:54:28;2.35;;;2.05;;
7338;SDS011;33747;49.524;8.390;2023-03-21T13:57:05;3.83;;;2.15;;
7338;SDS011;33747;49.524;8.390;2023-03-21T13:59:39;3.22;;;1.92;;
7338;SDS011;33747;49.524;8.390;2023-03-21T14:04:43;7.90;;;2.92;;
7338;SDS011;33747;49.524;8.390;2023-03-21T14:07:14;5.78;;;2.40;;
7338;SDS011;33747;49.524;8.390;2023-03-21T14:09:45;3.60;;;2.47;;
7338;SDS011;33747;49.524;8.390;2023-03-21T14:12:16;4.28;;;2.17;;
7338;SDS011;33747;49.524;8.390;2023-03-21T14:14:53;7.97;;;2.80;;
7338;SDS011;33747;49.524;8.390;2023-03-21T14:17:28;5.18;;;2.22;;
7338;SDS011;33747;49.524;8.390;2023-03-21T14:20:00;9.10;;;2.83;;
7338;SDS011;33747;49.524;8.390;2023-03-21T14:22:34;3.70;;;2.38;;
7338;SDS011;33747;49.524;8.390;2023-03-21T14:25:00;4.20;;;2.85;;
7338;SDS011;33747;49.524;8.390;2023-03-21T14:27:30;4.10;;;3.20;;
7338;SDS011;33747;49.524;8.390;2023-03-21T14:29:57;10.02;;;3.67;;
7338;SDS011;33747;49.524;8.390;2023-03-21T14:32:24;7.72;;;4.20;;
7338;SDS011;33747;49.524;8.390;2023-03-21T14:34:50;7.72;;;4.47;;
7338;SDS011;33747;49.524;8.390;2023-03-21T14:37:25;12.23;;;5.22;;
7338;SDS011;33747;49.524;8.390;2023-03-21T14:39:56;10.20;;;4.97;;
7338;SDS011;33747;49.524;8.390;2023-03-21T14:42:23;12.50;;;5.25;;
7338;SDS011;33747;49.524;8.390;2023-03-21T14:44:49;20.63;;;6.28;;
7338;SDS011;33747;49.524;8.390;2023-03-21T14:47:19;11.95;;;6.55;;
7338;SDS011;33747;49.524;8.390;2023-03-21T14:49:46;12.63;;;6.65;;
7338;SDS011;33747;49.524;8.390;2023-03-21T14:52:13;13.68;;;5.55;;
7338;SDS011;33747;49.524;8.390;2023-03-21T14:54:43;14.38;;;5.00;;
7338;SDS011;33747;49.524;8.390;2023-03-21T14:57:11;10.43;;;5.97;;
7338;SDS011;33747;49.524;8.390;2023-03-21T14:59:38;11.30;;;5.50;;
7338;SDS011;33747;49.524;8.390;2023-03-21T15:02:18;9.02;;;4.65;;
7338;SDS011;33747;49.524;8.390;2023-03-21T15:07:38;10.23;;;3.65;;
7338;SDS011;33747;49.524;8.390;2023-03-21T15:10:07;9.52;;;4.43;;
7338;SDS011;33747;49.524;8.390;2023-03-21T15:12:47;7.95;;;4.15;;
7338;SDS011;33747;49.524;8.390;2023-03-21T15:15:14;10.35;;;4.72;;
7338;SDS011;33747;49.524;8.390;2023-03-21T15:17:40;8.82;;;4.40;;
7338;SDS011;33747;49.524;8.390;2023-03-21T15:20:05;5.80;;;4.20;;
7338;SDS011;33747;49.524;8.390;2023-03-21T15:22:38;8.45;;;4.60;;
7338;SDS011;33747;49.524;8.390;2023-03-21T15:25:05;5.38;;;3.75;;
7338;SDS011;33747;49.524;8.390;2023-03-21T15:27:33;7.20;;;4.25;;
7338;SDS011;33747;49.524;8.390;2023-03-21T15:30:02;8.15;;;4.78;;
7338;SDS011;33747;49.524;8.390;2023-03-21T15:32:28;8.27;;;4.90;;
7338;SDS011;33747;49.524;8.390;2023-03-21T15:34:54;7.40;;;4.35;;
7338;SDS011;33747;49.524;8.390;2023-03-21T15:37:27;14.20;;;7.35;;
7338;SDS011;33747;49.524;8.390;2023-03-21T15:42:42;11.05;;;4.32;;
7338;SDS011;33747;49.524;8.390;2023-03-21T15:45:19;7.22;;;4.45;;
7338;SDS011;33747;49.524;8.390;2023-03-21T15:52:57;17.35;;;9.52;;
7338;SDS011;33747;49.524;8.390;2023-03-21T15:55:27;15.77;;;10.98;;
7338;SDS011;33747;49.524;8.390;2023-03-21T15:57:59;7.28;;;5.65;;
7338;SDS011;33747;49.524;8.390;2023-03-21T16:00:34;7.43;;;4.25;;
7338;SDS011;33747;49.524;8.390;2023-03-21T16:03:08;10.05;;;3.78;;
7338;SDS011;33747;49.524;8.390;2023-03-21T16:05:38;6.80;;;3.65;;
7338;SDS011;33747;49.524;8.390;2023-03-21T16:08:04;5.68;;;3.67;;
7338;SDS011;33747;49.524;8.390;2023-03-21T16:10:45;6.80;;;3.67;;
7338;SDS011;33747;49.524;8.390;2023-03-21T16:13:10;7.00;;;4.03;;
7338;SDS011;33747;49.524;8.390;2023-03-21T16:15:37;10.05;;;4.22;;
7338;SDS011;33747;49.524;8.390;2023-03-21T16:18:04;10.48;;;4.05;;
7338;SDS011;33747;49.524;8.390;2023-03-21T16:20:34;5.05;;;4.00;;
7338;SDS011;33747;49.524;8.390;2023-03-21T16:23:04;6.18;;;4.57;;
7338;SDS011;33747;49.524;8.390;2023-03-21T16:25:29;10.77;;;4.68;;
7338;SDS011;33747;49.524;8.390;2023-03-21T16:27:56;8.30;;;3.97;;
7338;SDS011;33747;49.524;8.390;2023-03-21T16:30:21;6.97;;;3.97;;
7338;SDS011;33747;49.524;8.390;2023-03-21T16:32:47;8.00;;;4.53;;
7338;SDS011;33747;49.524;8.390;2023-03-21T16:35:14;7.07;;;4.03;;
7338;SDS011;33747;49.524;8.390;2023-03-21T16:37:40;9.15;;;4.10;;
7338;SDS011;33747;49.524;8.390;2023-03-21T16:40:10;5.18;;;3.88;;
7338;SDS011;33747;49.524;8.390;2023-03-21T16:42:40;4.57;;;3.50;;
7338;SDS011;33747;49.524;8.390;2023-03-21T16:45:06;5.72;;;3.40;;
7338;SDS011;33747;49.524;8.390;2023-03-21T16:47:31;5.72;;;4.30;;
7338;SDS011;33747;49.524;8.390;2023-03-21T16:49:56;3.55;;;3.25;;
7338;SDS011;33747;49.524;8.390;2023-03-21T16:52:22;8.65;;;3.70;;
7338;SDS011;33747;49.524;8.390;2023-03-21T16:54:47;4.70;;;3.92;;
7338;SDS011;33747;49.524;8.390;2023-03-21T16:57:46;8.02;;;4.20;;
7338;SDS011;33747;49.524;8.390;2023-03-21T17:00:05;6.05;;;4.60;;